createdAt,value
2023-01-28T00:01:44.073Z,7.80
2023-01-28T00:04:13.353Z,7.80
2023-01-28T00:06:42.345Z,7.80
2023-01-28T00:09:11.589Z,7.80
2023-01-28T00:11:40.306Z,7.80
2023-01-28T00:14:09.013Z,7.80
2023-01-28T00:16:39.082Z,7.80
2023-01-28T00:19:07.864Z,7.80
2023-01-28T00:21:36.533Z,7.70
2023-01-28T00:24:07.202Z,7.60
2023-01-28T00:26:35.864Z,7.70
2023-01-28T00:29:05.316Z,7.60
2023-01-28T00:31:34.566Z,7.70
2023-01-28T00:34:04.938Z,7.70
2023-01-28T00:36:34.092Z,7.80
2023-01-28T00:39:03.124Z,7.80
2023-01-28T00:41:31.982Z,7.70
2023-01-28T00:44:00.948Z,7.70
2023-01-28T00:46:31.084Z,7.60
2023-01-28T00:48:59.700Z,7.50
2023-01-28T00:51:29.768Z,7.40
2023-01-28T00:53:58.418Z,7.40
2023-01-28T00:56:29.152Z,7.40
2023-01-28T00:58:57.951Z,7.40
2023-01-28T01:01:28.335Z,7.40
2023-01-28T01:04:03.166Z,7.40
2023-01-28T01:06:36.779Z,7.30
2023-01-28T01:09:08.624Z,7.40
2023-01-28T01:11:37.721Z,7.40
2023-01-28T01:14:07.239Z,7.50
2023-01-28T01:16:36.631Z,7.50
2023-01-28T01:19:05.500Z,7.60
2023-01-28T01:21:36.477Z,7.60
2023-01-28T01:24:06.140Z,7.60
2023-01-28T01:26:34.770Z,7.50
2023-01-28T01:29:03.406Z,7.60
2023-01-28T01:31:32.052Z,7.60
2023-01-28T01:34:02.315Z,7.60
2023-01-28T01:36:32.537Z,7.60
2023-01-28T01:39:02.632Z,7.60
2023-01-28T01:41:33.659Z,7.60
2023-01-28T01:44:03.783Z,7.60
2023-01-28T01:46:37.941Z,7.60
2023-01-28T01:49:16.223Z,7.60
2023-01-28T01:51:47.976Z,7.60
2023-01-28T01:54:19.338Z,7.60
2023-01-28T01:56:52.218Z,7.60
2023-01-28T01:59:26.201Z,7.60
2023-01-28T02:01:56.274Z,7.50
2023-01-28T02:04:28.696Z,7.50
2023-01-28T02:06:58.368Z,7.50
2023-01-28T02:09:30.710Z,7.50
2023-01-28T02:12:05.933Z,7.30
2023-01-28T02:14:38.415Z,7.20
2023-01-28T02:17:07.243Z,7.30
2023-01-28T02:19:40.008Z,7.40
2023-01-28T02:22:29.907Z,7.50
2023-01-28T02:25:20.797Z,7.60
2023-01-28T02:28:11.396Z,7.50
2023-01-28T02:30:44.175Z,7.40
2023-01-28T02:33:19.979Z,7.40
2023-01-28T02:35:53.496Z,7.50
2023-01-28T02:38:28.077Z,7.50
2023-01-28T02:41:05.967Z,7.50
2023-01-28T02:43:39.710Z,7.50
2023-01-28T02:46:38.490Z,7.50
2023-01-28T02:49:10.623Z,7.50
2023-01-28T02:51:54.363Z,7.50
2023-01-28T02:54:36.731Z,7.50
2023-01-28T02:57:18.904Z,7.60
2023-01-28T02:59:57.825Z,7.60
2023-01-28T03:02:33.862Z,7.60
2023-01-28T03:05:08.989Z,7.60
2023-01-28T03:07:40.037Z,7.70
2023-01-28T03:10:14.662Z,7.70
2023-01-28T03:13:04.944Z,7.70
2023-01-28T03:16:00.035Z,7.70
2023-01-28T03:18:49.716Z,7.70
2023-01-28T03:21:40.952Z,7.60
2023-01-28T03:24:31.520Z,7.60
2023-01-28T03:27:27.827Z,7.70
2023-01-28T03:30:26.039Z,7.80
2023-01-28T03:33:15.416Z,7.90
2023-01-28T03:36:02.070Z,7.90
2023-01-28T03:38:42.150Z,8.00
2023-01-28T03:41:22.972Z,8.00
2023-01-28T03:43:53.655Z,8.00
2023-01-28T03:46:22.417Z,8.10
2023-01-28T03:48:52.578Z,8.00
2023-01-28T03:51:21.437Z,8.00
2023-01-28T03:53:50.171Z,7.90
2023-01-28T03:56:20.027Z,7.90
2023-01-28T03:58:53.121Z,7.90
2023-01-28T04:01:22.918Z,7.90
2023-01-28T04:03:53.173Z,8.00
2023-01-28T04:06:31.177Z,8.00
2023-01-28T04:09:14.844Z,8.00
2023-01-28T04:11:52.969Z,8.10
2023-01-28T04:14:37.060Z,8.10
2023-01-28T04:17:10.832Z,8.20
2023-01-28T04:19:42.057Z,8.20
2023-01-28T04:22:12.846Z,8.30
2023-01-28T04:24:43.390Z,8.30
2023-01-28T04:27:12.898Z,8.30
2023-01-28T04:29:41.553Z,8.20
2023-01-28T04:32:32.655Z,8.30
2023-01-28T04:35:11.337Z,8.20
2023-01-28T04:38:06.134Z,8.20
2023-01-28T04:40:53.099Z,8.20
2023-01-28T04:43:28.597Z,8.20
2023-01-28T04:46:16.117Z,8.20
2023-01-28T04:48:55.276Z,8.20
2023-01-28T04:51:54.448Z,8.20
2023-01-28T04:54:23.143Z,8.20
2023-01-28T04:56:52.116Z,8.20
2023-01-28T04:59:21.195Z,8.20
2023-01-28T05:01:50.233Z,8.20
2023-01-28T05:04:21.538Z,8.20
2023-01-28T05:06:50.338Z,8.20
2023-01-28T05:09:25.591Z,8.10
2023-01-28T05:11:55.150Z,8.00
2023-01-28T05:14:24.808Z,7.90
2023-01-28T05:17:01.291Z,7.80
2023-01-28T05:19:30.084Z,7.80
2023-01-28T05:21:59.391Z,7.90
2023-01-28T05:24:45.452Z,7.80
2023-01-28T05:27:14.135Z,7.80
2023-01-28T05:29:43.624Z,7.80
2023-01-28T05:32:13.225Z,7.90
2023-01-28T05:34:41.893Z,8.00
2023-01-28T05:37:14.380Z,7.90
2023-01-28T05:39:44.418Z,7.90
2023-01-28T05:42:13.145Z,8.00
2023-01-28T05:44:46.826Z,8.00
2023-01-28T05:47:25.285Z,8.00
2023-01-28T05:50:01.653Z,8.00
2023-01-28T05:52:33.282Z,8.10
2023-01-28T05:55:04.318Z,8.10
2023-01-28T05:57:33.776Z,8.20
2023-01-28T06:00:05.772Z,8.20
2023-01-28T06:02:43.486Z,8.00
2023-01-28T06:05:15.593Z,7.80
2023-01-28T06:07:46.750Z,7.70
2023-01-28T06:10:18.192Z,7.60
2023-01-28T06:12:47.532Z,7.60
2023-01-28T06:15:35.018Z,7.60
2023-01-28T06:18:16.616Z,7.50
2023-01-28T06:20:45.528Z,7.50
2023-01-28T06:23:14.309Z,7.50
2023-01-28T06:25:44.666Z,7.50
2023-01-28T06:28:16.424Z,7.50
2023-01-28T06:30:45.997Z,7.50
2023-01-28T06:33:14.701Z,7.40
2023-01-28T06:35:44.946Z,7.50
2023-01-28T06:38:14.149Z,7.60
2023-01-28T06:40:44.117Z,7.70
2023-01-28T06:43:12.730Z,7.70
2023-01-28T06:45:41.423Z,7.60
2023-01-28T06:48:10.227Z,7.60
2023-01-28T06:50:39.076Z,7.60
2023-01-28T06:53:07.677Z,7.70
2023-01-28T06:55:36.395Z,7.80
2023-01-28T06:58:06.411Z,7.80
2023-01-28T07:00:35.084Z,7.80
2023-01-28T07:03:03.767Z,7.90
2023-01-28T07:05:32.468Z,7.90
2023-01-28T07:08:02.351Z,7.70
2023-01-28T07:10:31.220Z,7.50
2023-01-28T07:12:59.791Z,7.30
2023-01-28T07:15:29.967Z,7.30
2023-01-28T07:17:59.578Z,7.60
2023-01-28T07:20:28.604Z,7.70
2023-01-28T07:22:57.183Z,7.90
2023-01-28T07:25:25.837Z,7.90
2023-01-28T07:27:55.195Z,8.00
2023-01-28T07:30:24.531Z,8.10
2023-01-28T07:32:58.783Z,8.30
2023-01-28T07:35:28.599Z,8.20
2023-01-28T07:37:58.667Z,8.20
2023-01-28T07:40:28.798Z,8.30
2023-01-28T07:42:57.635Z,8.50
2023-01-28T07:45:30.768Z,8.60
2023-01-28T07:48:02.185Z,8.60
2023-01-28T07:50:32.894Z,8.60
2023-01-28T07:53:03.927Z,8.70
2023-01-28T07:55:35.910Z,8.70
2023-01-28T07:58:06.385Z,8.80
2023-01-28T08:00:37.145Z,8.80
2023-01-28T08:03:16.000Z,8.70
2023-01-28T08:05:47.245Z,8.70
2023-01-28T08:08:16.586Z,8.70
2023-01-28T08:10:45.366Z,8.70
2023-01-28T08:13:15.115Z,8.90
2023-01-28T08:15:44.078Z,9.10
2023-01-28T08:18:17.021Z,9.00
2023-01-28T08:20:47.544Z,9.10
2023-01-28T08:23:17.855Z,9.30
2023-01-28T08:25:47.427Z,9.60
2023-01-28T08:28:16.911Z,9.70
2023-01-28T08:30:46.007Z,9.90
2023-01-28T08:33:17.165Z,10.00
2023-01-28T08:35:46.122Z,10.00
2023-01-28T08:38:16.400Z,10.10
2023-01-28T08:40:45.076Z,10.40
2023-01-28T08:43:13.926Z,10.50
2023-01-28T08:45:42.772Z,10.40
2023-01-28T08:48:16.995Z,10.50
2023-01-28T08:50:46.203Z,10.50
2023-01-28T08:53:16.829Z,10.60
2023-01-28T08:55:45.777Z,10.60
2023-01-28T08:58:15.980Z,10.60
2023-01-28T09:00:46.454Z,10.60
2023-01-28T09:03:16.661Z,10.60
2023-01-28T09:05:45.383Z,10.70
2023-01-28T09:08:15.983Z,10.90
2023-01-28T09:10:45.760Z,11.00
2023-01-28T09:13:16.580Z,11.00
2023-01-28T09:15:45.559Z,10.90
2023-01-28T09:18:15.758Z,10.60
2023-01-28T09:20:44.433Z,10.70
2023-01-28T09:23:13.547Z,10.70
2023-01-28T09:25:42.529Z,10.80
2023-01-28T09:28:11.223Z,10.90
2023-01-28T09:30:40.032Z,11.00
2023-01-28T09:33:09.593Z,11.10
2023-01-28T09:35:39.733Z,11.20
2023-01-28T09:38:08.350Z,11.20
2023-01-28T09:40:42.188Z,11.10
2023-01-28T09:43:25.992Z,11.20
2023-01-28T09:45:57.146Z,11.20
2023-01-28T09:48:32.986Z,11.10
2023-01-28T09:51:03.315Z,11.10
2023-01-28T09:53:34.463Z,11.20
2023-01-28T09:56:05.346Z,11.30
2023-01-28T09:58:34.149Z,11.40
2023-01-28T10:01:08.237Z,11.40
2023-01-28T10:03:51.889Z,11.40
2023-01-28T10:06:29.612Z,11.50
2023-01-28T10:09:20.743Z,11.50
2023-01-28T10:12:03.701Z,11.60
2023-01-28T10:14:46.044Z,11.50
2023-01-28T10:17:19.257Z,11.60
2023-01-28T10:19:51.684Z,11.60
2023-01-28T10:22:25.870Z,11.60
2023-01-28T10:25:01.983Z,11.60
2023-01-28T10:27:32.782Z,11.60
2023-01-28T10:30:16.702Z,11.50
2023-01-28T10:32:52.771Z,11.50
2023-01-28T10:35:21.753Z,11.60
2023-01-28T10:38:01.940Z,11.70
2023-01-28T10:40:30.858Z,11.70
2023-01-28T10:42:59.442Z,11.80
2023-01-28T10:45:32.073Z,12.00
2023-01-28T10:48:05.148Z,12.00
2023-01-28T10:50:35.542Z,12.10
2023-01-28T10:53:07.544Z,12.20
2023-01-28T10:55:51.833Z,12.20
2023-01-28T10:58:23.729Z,12.20
2023-01-28T11:00:55.945Z,12.20
2023-01-28T11:03:28.001Z,12.20
2023-01-28T11:05:58.069Z,12.20
2023-01-28T11:08:30.251Z,12.30
2023-01-28T11:10:59.550Z,12.40
2023-01-28T11:13:29.838Z,12.60
2023-01-28T11:16:03.312Z,12.70
2023-01-28T11:18:34.547Z,12.90
2023-01-28T11:21:06.142Z,13.10
2023-01-28T11:23:41.284Z,13.10
2023-01-28T11:26:17.357Z,13.20
2023-01-28T11:28:46.954Z,13.50
2023-01-28T11:31:17.760Z,13.40
2023-01-28T11:33:52.091Z,13.50
2023-01-28T11:36:23.306Z,13.60
2023-01-28T11:38:55.560Z,13.70
2023-01-28T11:41:31.079Z,13.60
2023-01-28T11:44:02.897Z,13.40
2023-01-28T11:46:56.783Z,13.10
2023-01-28T11:49:38.281Z,12.70
2023-01-28T11:52:15.983Z,12.60
2023-01-28T11:54:57.146Z,12.70
2023-01-28T11:57:27.741Z,12.80
2023-01-28T12:00:19.369Z,12.90
2023-01-28T12:02:54.825Z,13.20
2023-01-28T12:05:43.384Z,13.60
2023-01-28T12:08:23.396Z,13.80
2023-01-28T12:11:09.063Z,13.70
2023-01-28T12:14:00.701Z,13.50
2023-01-28T12:16:54.437Z,13.40
2023-01-28T12:19:42.246Z,13.50
2023-01-28T12:22:54.003Z,13.60
2023-01-28T12:25:35.286Z,13.50
2023-01-28T12:28:17.379Z,13.50
2023-01-28T12:31:05.753Z,13.80
2023-01-28T12:34:01.640Z,13.90
2023-01-28T12:36:44.360Z,14.30
2023-01-28T12:39:23.329Z,14.30
2023-01-28T12:41:57.335Z,14.30
2023-01-28T12:44:34.497Z,14.50
2023-01-28T12:47:07.528Z,14.50
2023-01-28T12:49:40.872Z,14.60
2023-01-28T12:52:16.375Z,14.50
2023-01-28T12:54:55.088Z,14.70
2023-01-28T12:57:27.772Z,14.70
2023-01-28T13:00:04.243Z,14.80
2023-01-28T13:02:37.528Z,14.80
2023-01-28T13:05:12.330Z,14.80
2023-01-28T13:07:49.742Z,14.90
2023-01-28T13:10:25.790Z,14.80
2023-01-28T13:12:55.254Z,14.50
2023-01-28T13:15:26.615Z,14.10
2023-01-28T13:17:57.675Z,14.00
2023-01-28T13:20:38.670Z,13.90
2023-01-28T13:23:23.074Z,13.80
2023-01-28T13:25:53.537Z,13.70
2023-01-28T13:28:30.990Z,13.50
2023-01-28T13:31:06.781Z,13.50
2023-01-28T13:33:37.647Z,13.40
2023-01-28T13:36:21.081Z,13.30
2023-01-28T13:39:01.187Z,13.20
2023-01-28T13:41:40.441Z,13.00
2023-01-28T13:44:20.498Z,13.10
2023-01-28T13:46:50.840Z,13.10
2023-01-28T13:49:27.835Z,13.10
2023-01-28T13:52:08.987Z,13.10
2023-01-28T13:54:39.820Z,13.00
2023-01-28T13:58:09.087Z,12.80
2023-01-28T14:00:46.601Z,12.80
2023-01-28T14:03:41.751Z,12.80
2023-01-28T14:06:52.793Z,12.80
2023-01-28T14:09:38.287Z,12.70
2023-01-28T14:12:50.908Z,12.80
2023-01-28T14:15:40.585Z,12.80
2023-01-28T14:18:20.612Z,12.70
2023-01-28T14:20:51.537Z,12.60
2023-01-28T14:23:22.321Z,12.40
2023-01-28T14:26:05.284Z,12.50
2023-01-28T14:28:45.727Z,12.50
2023-01-28T14:31:19.800Z,12.30
2023-01-28T14:33:49.558Z,12.20
2023-01-28T14:36:20.006Z,12.30
2023-01-28T14:38:49.151Z,12.30
2023-01-28T14:41:25.009Z,12.30
2023-01-28T14:43:55.984Z,12.30
2023-01-28T14:46:34.383Z,12.30
2023-01-28T14:49:25.580Z,12.30
2023-01-28T14:52:20.572Z,12.30
2023-01-28T14:55:01.718Z,12.30
2023-01-28T14:57:49.943Z,12.30
2023-01-28T15:00:22.821Z,12.30
2023-01-28T15:02:51.923Z,12.30
2023-01-28T15:05:23.741Z,12.30
2023-01-28T15:07:54.397Z,12.20
2023-01-28T15:10:29.374Z,12.20
2023-01-28T15:13:00.969Z,12.20
2023-01-28T15:15:33.095Z,12.00
2023-01-28T15:18:05.872Z,11.90
2023-01-28T15:20:34.882Z,11.90
2023-01-28T15:23:08.913Z,11.70
2023-01-28T15:25:38.941Z,11.50
2023-01-28T15:28:07.663Z,11.30
2023-01-28T15:30:37.193Z,11.20
2023-01-28T15:33:08.016Z,11.10
2023-01-28T15:35:38.389Z,11.00
2023-01-28T15:38:10.278Z,10.90
2023-01-28T15:40:44.365Z,10.80
2023-01-28T15:43:21.313Z,10.80
2023-01-28T15:45:51.637Z,10.70
2023-01-28T15:48:20.527Z,10.70
2023-01-28T15:50:49.234Z,10.60
2023-01-28T15:53:19.364Z,10.60
2023-01-28T15:55:48.014Z,10.60
2023-01-28T15:58:20.189Z,10.60
2023-01-28T16:00:50.644Z,10.60
2023-01-28T16:03:22.114Z,10.60
2023-01-28T16:06:03.182Z,10.60
2023-01-28T16:08:39.716Z,10.40
2023-01-28T16:11:11.603Z,10.40
2023-01-28T16:13:44.913Z,10.50
2023-01-28T16:16:14.128Z,10.50
2023-01-28T16:18:47.565Z,10.60
2023-01-28T16:21:24.027Z,10.70
2023-01-28T16:24:01.826Z,10.80
2023-01-28T16:26:32.641Z,10.80
2023-01-28T16:29:12.957Z,10.80
2023-01-28T16:31:41.660Z,10.70
2023-01-28T16:34:11.969Z,10.50
2023-01-28T16:36:40.670Z,10.40
2023-01-28T16:39:10.817Z,10.30
2023-01-28T16:41:42.481Z,10.10
2023-01-28T16:44:14.266Z,10.30
2023-01-28T16:46:43.277Z,10.30
2023-01-28T16:49:12.355Z,10.10
2023-01-28T16:51:44.085Z,10.10
2023-01-28T16:54:17.394Z,10.00
2023-01-28T16:56:47.008Z,10.00
2023-01-28T16:59:16.527Z,9.90
2023-01-28T17:01:45.916Z,9.90
2023-01-28T17:04:14.810Z,9.90
2023-01-28T17:06:44.864Z,9.80
2023-01-28T17:09:15.889Z,9.80
2023-01-28T17:11:44.595Z,9.80
2023-01-28T17:14:13.241Z,9.70
2023-01-28T17:16:42.892Z,9.70
2023-01-28T17:19:11.551Z,9.70
2023-01-28T17:21:40.239Z,9.60
2023-01-28T17:24:09.720Z,9.50
2023-01-28T17:26:39.957Z,9.30
2023-01-28T17:29:09.395Z,9.30
2023-01-28T17:31:38.308Z,9.20
2023-01-28T17:36:36.934Z,9.10
2023-01-28T17:39:07.606Z,9.00
2023-01-28T17:41:36.323Z,8.80
2023-01-28T17:44:07.024Z,8.60
2023-01-28T17:46:35.707Z,8.50
2023-01-28T17:49:04.785Z,8.50
2023-01-28T17:51:33.492Z,8.40
2023-01-28T17:54:02.104Z,8.30
2023-01-28T17:56:32.114Z,8.20
2023-01-28T17:59:03.943Z,8.10
2023-01-28T18:01:37.316Z,8.10
2023-01-28T18:04:06.385Z,8.20
2023-01-28T18:06:36.155Z,8.20
2023-01-28T18:09:07.262Z,8.40
2023-01-28T18:11:36.112Z,8.40
2023-01-28T18:14:04.721Z,8.40
2023-01-28T18:16:34.780Z,8.30
2023-01-28T18:19:03.413Z,8.30
2023-01-28T18:21:46.469Z,8.30
2023-01-28T18:24:20.651Z,8.20
2023-01-28T18:26:49.404Z,8.20
2023-01-28T18:29:20.887Z,8.20
2023-01-28T18:31:52.108Z,8.20
2023-01-28T18:34:20.961Z,8.20
2023-01-28T18:36:49.959Z,8.20
2023-01-28T18:39:19.141Z,8.10
2023-01-28T18:41:47.871Z,8.10
2023-01-28T18:44:17.424Z,8.20
2023-01-28T18:46:46.111Z,8.30
2023-01-28T18:49:16.427Z,8.30
2023-01-28T18:51:45.233Z,8.30
2023-01-28T18:54:16.163Z,8.30
2023-01-28T18:56:45.556Z,8.20
2023-01-28T18:59:15.670Z,8.20
2023-01-28T19:01:47.801Z,8.20
2023-01-28T19:04:19.270Z,8.20
2023-01-28T19:06:48.457Z,8.20
2023-01-28T19:09:18.643Z,8.10
2023-01-28T19:11:48.524Z,8.20
2023-01-28T19:14:17.335Z,8.20
2023-01-28T19:16:46.282Z,8.10
2023-01-28T19:19:14.903Z,8.10
2023-01-28T19:21:45.015Z,8.10
2023-01-28T19:24:15.195Z,8.10
2023-01-28T19:26:45.351Z,8.00
2023-01-28T19:29:16.335Z,8.00
2023-01-28T19:31:49.189Z,7.90
2023-01-28T19:34:18.073Z,8.00
2023-01-28T19:36:48.212Z,7.70
2023-01-28T19:39:17.343Z,7.70
2023-01-28T19:41:46.085Z,7.60
2023-01-28T19:44:14.724Z,7.50
2023-01-28T19:46:43.487Z,7.50
2023-01-28T19:49:13.204Z,7.40
2023-01-28T19:51:41.750Z,7.30
2023-01-28T19:54:11.809Z,7.30
2023-01-28T19:56:40.566Z,7.30
2023-01-28T19:59:09.190Z,7.30
2023-01-28T20:01:37.854Z,7.30
2023-01-28T20:04:06.491Z,7.30
2023-01-28T20:06:35.881Z,7.50
2023-01-28T20:09:07.838Z,7.50
2023-01-28T20:11:38.260Z,7.50
2023-01-28T20:14:07.077Z,7.60
2023-01-28T20:16:37.136Z,7.60
2023-01-28T20:19:08.216Z,7.50
2023-01-28T20:21:37.268Z,7.40
2023-01-28T20:24:06.716Z,7.20
2023-01-28T20:26:38.324Z,7.30
2023-01-28T20:29:09.606Z,7.30
2023-01-28T20:31:40.814Z,7.30
2023-01-28T20:34:13.768Z,7.30
2023-01-28T20:36:42.871Z,7.40
2023-01-28T20:39:12.069Z,7.40
2023-01-28T20:41:42.191Z,7.30
2023-01-28T20:44:10.807Z,7.20
2023-01-28T20:46:39.405Z,7.20
2023-01-28T20:49:08.297Z,7.20
2023-01-28T20:51:38.407Z,7.30
2023-01-28T20:54:07.081Z,7.30
2023-01-28T20:56:35.713Z,7.30
2023-01-28T20:59:07.629Z,7.40
2023-01-28T21:01:37.445Z,7.50
2023-01-28T21:04:08.506Z,7.50
2023-01-28T21:06:40.017Z,7.50
2023-01-28T21:09:09.210Z,7.40
2023-01-28T21:11:37.817Z,7.50
2023-01-28T21:14:07.824Z,7.50
2023-01-28T21:16:41.235Z,7.30
2023-01-28T21:19:11.031Z,7.10
2023-01-28T21:21:42.686Z,6.90
2023-01-28T21:24:12.637Z,6.70
2023-01-28T21:26:41.358Z,6.50
2023-01-28T21:29:11.556Z,6.70
2023-01-28T21:31:40.183Z,6.80
2023-01-28T21:34:09.300Z,7.00
2023-01-28T21:36:38.110Z,7.10
2023-01-28T21:39:06.900Z,7.10
2023-01-28T21:41:35.502Z,7.10
2023-01-28T21:44:04.128Z,7.10
2023-01-28T21:46:35.051Z,7.20
2023-01-28T21:49:05.510Z,7.20
2023-01-28T21:51:39.621Z,7.40
2023-01-28T21:54:11.501Z,7.30
2023-01-28T21:56:40.243Z,7.30
2023-01-28T21:59:26.128Z,7.30
2023-01-28T22:01:56.545Z,7.20
2023-01-28T22:04:26.013Z,7.10
2023-01-28T22:06:55.745Z,7.00
2023-01-28T22:09:24.912Z,7.10
2023-01-28T22:11:53.549Z,7.10
2023-01-28T22:14:22.557Z,7.20
2023-01-28T22:16:51.214Z,7.30
2023-01-28T22:19:21.403Z,7.30
2023-01-28T22:21:50.070Z,7.30
2023-01-28T22:24:20.221Z,7.30
2023-01-28T22:26:49.228Z,7.30
2023-01-28T22:29:19.193Z,7.30
2023-01-28T22:31:48.303Z,7.30
2023-01-28T22:34:17.812Z,7.40
2023-01-28T22:36:48.241Z,7.40
2023-01-28T22:39:18.100Z,7.50
2023-01-28T22:41:47.122Z,7.50
2023-01-28T22:44:16.261Z,7.40
2023-01-28T22:46:45.004Z,7.50
2023-01-28T22:49:15.150Z,7.40
2023-01-28T22:51:44.191Z,7.40
2023-01-28T22:54:15.194Z,7.40
2023-01-28T22:56:43.957Z,7.50
2023-01-28T22:59:13.084Z,7.50
2023-01-28T23:01:41.827Z,7.60
2023-01-28T23:04:10.494Z,7.50
2023-01-28T23:06:39.105Z,7.50
2023-01-28T23:09:07.757Z,7.40
2023-01-28T23:11:38.016Z,7.40
2023-01-28T23:14:24.100Z,7.50
2023-01-28T23:17:10.530Z,7.50
2023-01-28T23:19:56.400Z,7.40
2023-01-28T23:22:46.765Z,7.30
2023-01-28T23:25:16.039Z,7.40
2023-01-28T23:27:46.280Z,7.30
2023-01-28T23:30:16.011Z,7.20
2023-01-28T23:32:48.516Z,7.30
2023-01-28T23:35:19.227Z,7.30
2023-01-28T23:37:47.984Z,7.40
2023-01-28T23:40:17.354Z,7.40
2023-01-28T23:42:51.390Z,7.40
2023-01-28T23:45:20.605Z,7.40
2023-01-28T23:47:49.735Z,7.30
2023-01-28T23:50:19.323Z,7.40
2023-01-28T23:52:48.073Z,7.30
2023-01-28T23:55:17.172Z,7.20
2023-01-28T23:57:45.707Z,7.30
